Архив погоды в Бикине

Метеограмма Бикин
Среда, 17 Июля
Время местн. Темп Ветер Видим Явления Облачность нижн/средн/верх Атм. давл. Влжн Точка росы ВНГО R Сост. почвы Tg s
Напр Скр Прв ур.ст ур.м изм
07:00 +19.5° Ю-В 2 - 20 км - преимущественно облачно 752 758 -0.5 79% +15.8° 1 км 0 Влажная (без луж) - -
04:00 +19.5° В,Ю-В 1 - 20 км - переменная облачность 753 759 -0.3 85% +17° - - - - -
01:00 +20.6° штиль 0 - 20 км - облачно с прояснениями 753 759 +0.2 80% +17° 1 км - - - -
Вторник, 16 Июля
Время местн. Темп Ветер Видим Явления Облачность нижн/средн/верх Атм. давл. Влжн Точка росы ВНГО R Сост. почвы Tg s
Напр Скр Прв ур.ст ур.м изм
22:00 +21.6° В 1 - 20 км - переменная облачность 753 759 +0.5 77% +17.3° более 2.5 км - - - -
19:00 +25.4° Ю 2 - 20 км - преимущественно облачно 752 758 -1 59% +16.7° 1 км 0 - - -
16:00 +26.1° Ю 2 - 20 км - облачно с прояснениями 753 759 -0.8 56% +16.5° 1 км - - - -
13:00 +25.3° Ю-В 3 - 20 км - облачно с прояснениями 754 760 -0.8 59% +16.8° 1 км - - - -
10:00 +21.8° Ю-В 3 - 20 км - облачно с прояснениями 755 761 +0.2 71% +16.2° 1 км - - - -
07:00 +19.5° Ю-В 2 - 20 км - преимущественно облачно 755 761 +0.7 77% +15.3° 1 км 0 Влажная (без луж) +20° -
04:00 +19.9° В,Ю-В 2 - 20 км - облачно 754 760 +0.3 78% +16° 1 км - - - -
01:00 +20.9° В,Ю-В 2 - 20 км - преимущественно облачно 754 759 +0.5 76% +16.6° 1 км - - - -
Понедельник, 15 Июля
Время местн. Темп Ветер Видим Явления Облачность нижн/средн/верх Атм. давл. Влжн Точка росы ВНГО R Сост. почвы Tg s
Напр Скр Прв ур.ст ур.м изм
22:00 +21° В 1 - 20 км - облачно с прояснениями 753 759 +0.9 77% +16.8° 1 км - - - -
19:00 +25.5° Ю 2 - более 50 км - переменная облачность 752 758 -0.4 58% +16.5° 1 км 0 - - -
16:00 +24.3° Ю-В 2 - 20 км - преимущественно облачно 753 759 -0.5 65% +17.2° 1 км - - - -
13:00 +22.5° Ю,Ю-В 3 - более 50 км - облачно 753 759 +0.5 66% +15.9° 1 км - - - -
10:00 +22° Ю-В 3 - 20 км - преимущественно облачно 753 759 +0.4 64% +14.9° 1 км - - - -
07:00 +18.9° Ю,Ю-В 1 - 10 км - преимущественно облачно 752 758 +1 75% +14.4° 1 км 0 Влажная (без луж) - -
04:00 +18.6° Ю-В 1 - 10 км - переменная облачность 751 757 +0.6 76% +14.3° 1 км - - - -
01:00 +21.1° Ю-В 2 - 10 км - преимущественно облачно 751 757 +0.9 69% +15.2° 1 км - - - -
Воскресенье, 14 Июля
Время местн. Темп Ветер Видим Явления Облачность нижн/средн/верх Атм. давл. Влжн Точка росы ВНГО R Сост. почвы Tg s
Напр Скр Прв ур.ст ур.м изм
22:00 +22.5° штиль 0 - 10 км - преимущественно облачно 750 756 +1.4 69% +16.5° 1 км - - - -
19:00 +24.6° Ю 1 - 20 км - преимущественно облачно 748 754 -0.1 58% +15.9° более 2.5 км 0 - - -
16:00 +25.5° Ю 3 - 20 км - облачно с прояснениями 749 754 -0.4 52% +14.9° 1 км - - - -
13:00 +25.4° Ю 2 - 20 км - облачно с прояснениями 749 755 +0.1 54% +15.3° 1 км - - - -
10:00 +22.5° Ю 1 - 10 км облака развиваются {туман} облачно с прояснениями 749 755 0 64% +15.4° более 2.5 км - - - -
07:00 +17.8° штиль 0 - 4 км дымка переменная облачность 749 755 +0.6 91% +16.3° - 1 Влажная (без луж) - -
01:00 +19.3° С,С-В 1 - 10 км - облачно 748 754 +0.4 90% +17.6° 1 км - - - -